Clyde Park, Montana
Current Conditions -  °F | °C
As of 8:53 AM on Monday 24 Nov 2014 (Local Time) from KLVM Reporting Station
Overcast Overcast  
Wind Chill: 22°   Ceiling: 7500
Heat Index: 34°   Visibility: 10mi
Dew Point: 17°   Wind: 24mph
Humidity: 50%   Direction: 240°WSW
Pressure: 30.09"   Gusts: 32mph
Location:  45.89°N, 110.6°W
Report Text: KLVM 241553Z AUTO 24021G28KT 10SM BKN075 OVC090 01/M08 A3009 RMK AO2 PK WND 25028/1552 SLP210 T00111083
Loading
Personal Weather Stations






























Interactive Weather Map New forecast layout! Learn more

10-Day Weather Forecast

Advertisements
Track Severe Weather on mobile